createdAt,value
2023-02-22T00:01:16.110Z,86.8
2023-02-22T00:02:32.394Z,86.9
2023-02-22T00:03:48.697Z,87.1
2023-02-22T00:05:04.997Z,87.2
2023-02-22T00:06:21.267Z,87.3
2023-02-22T00:07:37.565Z,87.4
2023-02-22T00:08:53.854Z,87.4
2023-02-22T00:10:10.148Z,87.5
2023-02-22T00:11:26.460Z,87.6
2023-02-22T00:12:41.762Z,87.8
2023-02-22T00:13:58.066Z,87.8
2023-02-22T00:15:14.350Z,87.7
2023-02-22T00:16:30.659Z,87.8
2023-02-22T00:17:46.961Z,87.9
2023-02-22T00:19:03.245Z,88
2023-02-22T00:20:19.525Z,87.9
2023-02-22T00:21:35.837Z,88
2023-02-22T00:22:52.104Z,87.9
2023-02-22T00:24:08.407Z,87.9
2023-02-22T00:25:24.696Z,87.9
2023-02-22T00:26:40.992Z,87.9
2023-02-22T00:27:57.311Z,88.1
2023-02-22T00:29:12.614Z,88.2
2023-02-22T00:30:28.894Z,88.1
2023-02-22T00:31:45.210Z,88
2023-02-22T00:33:01.505Z,87.9
2023-02-22T00:34:17.769Z,87.9
2023-02-22T00:35:34.082Z,88.3
2023-02-22T00:36:50.355Z,88.3
2023-02-22T00:38:06.670Z,88.1
2023-02-22T00:39:22.979Z,88.2
2023-02-22T00:40:39.264Z,88.3
2023-02-22T00:41:55.531Z,88.3
2023-02-22T00:43:11.847Z,88.3
2023-02-22T00:44:28.155Z,88.3
2023-02-22T00:45:43.457Z,88.7
2023-02-22T00:46:59.753Z,88.7
2023-02-22T00:48:16.035Z,88.7
2023-02-22T00:49:32.338Z,88.5
2023-02-22T00:50:48.628Z,88.5
2023-02-22T00:52:04.903Z,88.5
2023-02-22T00:53:21.195Z,88.6
2023-02-22T00:54:37.493Z,88.8
2023-02-22T00:57:10.100Z,88.9
2023-02-22T00:58:26.403Z,89.2
2023-02-22T00:59:42.700Z,89.2
2023-02-22T01:00:58.984Z,89.1
2023-02-22T01:02:14.282Z,89.2
2023-02-22T01:03:30.582Z,89.3
2023-02-22T01:04:46.891Z,89.3
2023-02-22T01:06:03.191Z,89.3
2023-02-22T01:07:19.472Z,89.6
2023-02-22T01:08:35.769Z,89.7
2023-02-22T01:09:52.039Z,89.8
2023-02-22T01:11:08.339Z,89.9
2023-02-22T01:12:24.644Z,90
2023-02-22T01:13:40.923Z,90
2023-02-22T01:14:57.242Z,90
2023-02-22T01:16:13.530Z,90.3
2023-02-22T01:17:29.815Z,90.3
2023-02-22T01:18:45.115Z,90.4
2023-02-22T01:20:01.433Z,90.2
2023-02-22T01:21:17.706Z,90.1
2023-02-22T01:22:34.000Z,90.1
2023-02-22T01:23:50.311Z,90
2023-02-22T01:25:06.605Z,90.1
2023-02-22T01:26:22.890Z,90.2
2023-02-22T01:27:39.191Z,90.2
2023-02-22T01:28:55.484Z,90.1
2023-02-22T01:30:11.783Z,90.2
2023-02-22T01:31:28.071Z,90.3
2023-02-22T01:32:44.371Z,90.4
2023-02-22T01:34:00.654Z,90.5
2023-02-22T01:35:17.078Z,90.5
2023-02-22T01:36:33.350Z,91.1
2023-02-22T01:37:49.647Z,90.9
2023-02-22T01:39:05.938Z,90.7
2023-02-22T01:40:22.236Z,90.6
2023-02-22T01:42:54.827Z,90.9
2023-02-22T01:44:11.131Z,90.8
2023-02-22T01:45:27.437Z,91
2023-02-22T01:46:43.730Z,91.1
2023-02-22T01:48:00.019Z,91.2
2023-02-22T01:49:16.296Z,91.4
2023-02-22T01:50:32.607Z,91.3
2023-02-22T01:51:47.894Z,91.3
2023-02-22T01:53:04.214Z,91.2
2023-02-22T01:54:20.514Z,91.2
2023-02-22T01:55:36.780Z,91.3
2023-02-22T01:56:53.083Z,91.3
2023-02-22T01:58:09.367Z,91.3
2023-02-22T01:59:25.660Z,91.2
2023-02-22T02:00:41.982Z,91.3
2023-02-22T02:01:58.270Z,91.5
2023-02-22T02:03:14.564Z,91.5
2023-02-22T02:04:30.838Z,91.6
2023-02-22T02:05:47.157Z,91.8
2023-02-22T02:07:03.423Z,91.6
2023-02-22T02:08:19.870Z,91.6
2023-02-22T02:09:36.147Z,91.7
2023-02-22T02:10:52.456Z,91.9
2023-02-22T02:12:08.723Z,91.8
2023-02-22T02:13:25.028Z,91.8
2023-02-22T02:14:41.333Z,91.9
2023-02-22T02:15:57.627Z,92
2023-02-22T02:17:13.919Z,92.1
2023-02-22T02:18:30.224Z,92.3
2023-02-22T02:19:46.500Z,92.6
2023-02-22T02:21:02.816Z,92.8
2023-02-22T02:22:19.108Z,92.7
2023-02-22T02:23:35.379Z,92.5
2023-02-22T02:24:50.697Z,92.2
2023-02-22T02:26:06.993Z,91.9
2023-02-22T02:27:23.281Z,91.9
2023-02-22T02:28:39.568Z,92.2
2023-02-22T02:29:55.878Z,92.5
2023-02-22T02:31:12.162Z,92.5
2023-02-22T02:32:27.468Z,92.4
2023-02-22T02:33:43.760Z,92.5
2023-02-22T02:35:00.078Z,92.8
2023-02-22T02:36:16.374Z,92.7
2023-02-22T02:37:32.645Z,92.8
2023-02-22T02:38:48.945Z,92.8
2023-02-22T02:40:05.243Z,92.9
2023-02-22T02:41:21.560Z,92.7
2023-02-22T02:42:37.847Z,92.6
2023-02-22T02:43:54.120Z,92.7
2023-02-22T02:45:10.428Z,92.5
2023-02-22T02:46:26.702Z,92.5
2023-02-22T02:47:43.023Z,92.6
2023-02-22T02:48:58.331Z,92.8
2023-02-22T02:50:14.599Z,92.6
2023-02-22T02:51:30.894Z,92.5
2023-02-22T02:52:47.208Z,92.4
2023-02-22T02:54:03.515Z,92.2
2023-02-22T02:55:19.780Z,92.4
2023-02-22T02:56:36.093Z,93
2023-02-22T02:57:52.381Z,93.1
2023-02-22T02:59:08.663Z,93
2023-02-22T03:00:24.992Z,93.2
2023-02-22T03:01:41.257Z,93.4
2023-02-22T03:02:57.577Z,93.4
2023-02-22T03:04:13.862Z,93.5
2023-02-22T03:05:29.149Z,93.2
2023-02-22T03:06:45.475Z,93
2023-02-22T03:08:01.761Z,92.9
2023-02-22T03:09:18.041Z,93
2023-02-22T03:10:34.347Z,93.5
2023-02-22T03:11:50.621Z,93.9
2023-02-22T03:13:06.933Z,94.1
2023-02-22T03:14:23.236Z,94.1
2023-02-22T03:15:39.522Z,94.1
2023-02-22T03:16:55.815Z,94
2023-02-22T03:18:12.127Z,93.9
2023-02-22T03:19:28.379Z,93.8
2023-02-22T03:20:44.683Z,93.9
2023-02-22T03:22:00.003Z,93.9
2023-02-22T03:23:16.301Z,93.8
2023-02-22T03:24:32.596Z,93.9
2023-02-22T03:25:48.905Z,93.8
2023-02-22T03:27:05.192Z,93.8
2023-02-22T03:28:21.470Z,94
2023-02-22T03:29:37.757Z,93.6
2023-02-22T03:30:54.061Z,93.3
2023-02-22T03:32:10.338Z,93.3
2023-02-22T03:33:26.670Z,93.3
2023-02-22T03:34:42.934Z,93.5
2023-02-22T03:35:59.233Z,93.6
2023-02-22T03:37:15.541Z,93.7
2023-02-22T03:38:30.851Z,93.8
2023-02-22T03:39:47.144Z,94
2023-02-22T03:41:03.412Z,94
2023-02-22T03:42:19.732Z,94
2023-02-22T03:43:36.012Z,94
2023-02-22T03:44:52.325Z,94.2
2023-02-22T03:46:08.615Z,94.3
2023-02-22T03:47:24.908Z,94.3
2023-02-22T03:48:41.195Z,94.3
2023-02-22T03:49:57.476Z,94.3
2023-02-22T03:51:13.784Z,94.3
2023-02-22T03:52:30.062Z,94.2
2023-02-22T03:53:46.391Z,94.2
2023-02-22T03:55:01.701Z,94.1
2023-02-22T03:56:17.984Z,94.2
2023-02-22T03:57:34.257Z,94.3
2023-02-22T03:58:50.557Z,94.3
2023-02-22T04:00:06.845Z,94.5
2023-02-22T04:01:23.145Z,94.6
2023-02-22T04:02:39.471Z,94.6
2023-02-22T04:03:55.752Z,94.5
2023-02-22T04:05:12.022Z,94.5
2023-02-22T04:06:28.317Z,94.5
2023-02-22T04:07:44.633Z,94.5
2023-02-22T04:09:00.937Z,94.6
2023-02-22T04:10:17.201Z,94.6
2023-02-22T04:11:32.534Z,94.4
2023-02-22T04:12:48.832Z,94.3
2023-02-22T04:14:05.119Z,94.2
2023-02-22T04:15:21.419Z,94.2
2023-02-22T04:16:37.699Z,94.1
2023-02-22T04:17:53.985Z,93.9
2023-02-22T04:19:10.276Z,93.9
2023-02-22T04:20:26.588Z,94
2023-02-22T04:21:42.867Z,94.1
2023-02-22T04:22:59.188Z,94.5
2023-02-22T04:24:15.454Z,94.9
2023-02-22T04:25:31.769Z,95.2
2023-02-22T04:26:48.069Z,95.3
2023-02-22T04:28:03.372Z,95.3
2023-02-22T04:29:19.647Z,95.3
2023-02-22T04:30:35.963Z,95.4
2023-02-22T04:31:52.232Z,95.6
2023-02-22T04:33:08.529Z,95.5
2023-02-22T04:34:24.822Z,95.6
2023-02-22T04:35:41.141Z,95.8
2023-02-22T04:36:57.412Z,95.8
2023-02-22T04:38:13.733Z,95.5
2023-02-22T04:39:30.004Z,95.5
2023-02-22T04:40:46.304Z,95.4
2023-02-22T04:42:02.595Z,95.4
2023-02-22T04:43:18.881Z,95.3
2023-02-22T04:44:34.209Z,95.2
2023-02-22T04:45:50.489Z,95.2
2023-02-22T04:47:06.809Z,95.3
2023-02-22T04:48:23.074Z,95.5
2023-02-22T04:49:39.392Z,95.5
2023-02-22T04:50:55.663Z,95.6
2023-02-22T04:52:11.958Z,95.8
2023-02-22T04:53:28.257Z,95.9
2023-02-22T04:54:44.568Z,96
2023-02-22T04:56:00.876Z,96.1
2023-02-22T04:57:17.156Z,96.4
2023-02-22T04:58:33.456Z,96.4
2023-02-22T04:59:49.728Z,96.4
2023-02-22T05:01:05.066Z,96.2
2023-02-22T05:02:21.350Z,95.9
2023-02-22T05:03:37.630Z,95.8
2023-02-22T05:04:53.938Z,95.9
2023-02-22T05:06:10.238Z,95.8
2023-02-22T05:07:26.506Z,95.8
2023-02-22T05:08:42.835Z,95.5
2023-02-22T05:09:59.104Z,95.3
2023-02-22T05:11:15.390Z,95.3
2023-02-22T05:12:31.692Z,95.3
2023-02-22T05:13:47.999Z,95.3
2023-02-22T05:15:04.282Z,95.3
2023-02-22T05:16:20.596Z,95.3
2023-02-22T05:17:35.875Z,95.5
2023-02-22T05:18:52.167Z,95.5
2023-02-22T05:20:08.481Z,95.6
2023-02-22T05:21:24.785Z,95.9
2023-02-22T05:22:41.083Z,96
2023-02-22T05:23:57.378Z,96.1
2023-02-22T05:25:13.665Z,96.2
2023-02-22T05:26:29.949Z,96.3
2023-02-22T05:27:46.226Z,96.3
2023-02-22T05:29:02.546Z,96.3
2023-02-22T05:30:18.815Z,96.3
2023-02-22T05:31:35.117Z,96.4
2023-02-22T05:32:51.410Z,96.4
2023-02-22T05:34:06.720Z,96.5
2023-02-22T05:35:23.018Z,96.5
2023-02-22T05:36:39.302Z,96.4
2023-02-22T05:37:55.609Z,96.4
2023-02-22T05:39:11.910Z,96.4
2023-02-22T05:40:28.201Z,96.5
2023-02-22T05:41:44.478Z,96.5
2023-02-22T05:43:00.780Z,96.4
2023-02-22T05:44:17.036Z,96.4
2023-02-22T05:46:49.627Z,96.7
2023-02-22T05:48:05.855Z,96.7
2023-02-22T05:49:22.125Z,96.8
2023-02-22T05:50:37.405Z,96.8
2023-02-22T05:51:53.656Z,96.7
2023-02-22T05:53:09.907Z,96.7
2023-02-22T05:54:26.224Z,96.8
2023-02-22T05:55:42.448Z,96.9
2023-02-22T05:56:58.719Z,97
2023-02-22T05:58:14.947Z,97
2023-02-22T05:59:31.193Z,97
2023-02-22T06:00:47.413Z,96.9
2023-02-22T06:02:03.675Z,96.9
2023-02-22T06:03:19.886Z,96.8
2023-02-22T06:04:36.127Z,96.8
2023-02-22T06:05:52.394Z,96.8
2023-02-22T06:07:07.652Z,96.9
2023-02-22T06:08:23.868Z,96.9
2023-02-22T06:09:40.109Z,96.9
2023-02-22T06:10:56.375Z,96.9
2023-02-22T06:12:12.614Z,96.8
2023-02-22T06:13:28.840Z,96.7
2023-02-22T06:14:45.066Z,96.7
2023-02-22T06:16:01.308Z,96.7
2023-02-22T06:17:17.574Z,96.7
2023-02-22T06:18:33.784Z,96.5
2023-02-22T06:19:50.048Z,96.4
2023-02-22T06:21:06.299Z,96.4
2023-02-22T06:22:22.528Z,96.4
2023-02-22T06:23:37.767Z,96.4
2023-02-22T06:24:54.025Z,96.4
2023-02-22T06:26:10.269Z,96.4
2023-02-22T06:27:26.482Z,96.4
2023-02-22T06:28:42.747Z,96.4
2023-02-22T06:29:58.992Z,96.4
2023-02-22T06:31:15.231Z,96.5
2023-02-22T06:32:31.441Z,96.5
2023-02-22T06:33:47.681Z,96.6
2023-02-22T06:35:03.923Z,96.5
2023-02-22T06:36:20.165Z,96.5
2023-02-22T06:37:36.410Z,96.6
2023-02-22T06:38:52.644Z,96.6
2023-02-22T06:40:07.925Z,96.6
2023-02-22T06:41:24.165Z,96.6
2023-02-22T06:42:40.412Z,96.6
2023-02-22T06:43:56.654Z,96.5
2023-02-22T06:45:12.864Z,96.5
2023-02-22T06:46:29.116Z,96.6
2023-02-22T06:47:44.394Z,96.5
2023-02-22T06:49:00.612Z,96.5
2023-02-22T06:50:16.848Z,96.5
2023-02-22T06:51:33.090Z,96.4
2023-02-22T06:52:49.325Z,96.4
2023-02-22T06:54:05.570Z,96.5
2023-02-22T06:55:21.812Z,96.6
2023-02-22T06:56:38.046Z,96.6
2023-02-22T06:57:54.315Z,96.6
2023-02-22T06:59:10.552Z,96.6
2023-02-22T07:00:26.796Z,96.7
2023-02-22T07:01:43.020Z,96.7
2023-02-22T07:02:59.275Z,96.6
2023-02-22T07:04:14.508Z,96.6
2023-02-22T07:05:30.768Z,96.6
2023-02-22T07:06:47.027Z,96.7
2023-02-22T07:08:03.235Z,96.6
2023-02-22T07:09:19.508Z,96.5
2023-02-22T07:10:35.734Z,96.5
2023-02-22T07:11:51.965Z,96.5
2023-02-22T07:13:08.220Z,96.5
2023-02-22T07:14:24.431Z,96.5
2023-02-22T07:15:40.677Z,96.4
2023-02-22T07:16:56.906Z,96.2
2023-02-22T07:18:13.173Z,96.1
2023-02-22T07:19:29.428Z,96
2023-02-22T07:20:44.667Z,95.9
2023-02-22T07:22:00.917Z,95.8
2023-02-22T07:23:17.128Z,95.8
2023-02-22T07:24:33.375Z,95.8
2023-02-22T07:25:49.609Z,95.8
2023-02-22T07:27:05.858Z,95.8
2023-02-22T07:28:22.099Z,95.8
2023-02-22T07:29:38.331Z,95.7
2023-02-22T07:30:54.594Z,95.6
2023-02-22T07:32:10.000Z,95.7
2023-02-22T07:33:27.049Z,95.6
2023-02-22T07:34:43.304Z,95.6
2023-02-22T07:35:59.527Z,95.3
2023-02-22T07:37:14.782Z,95.2
2023-02-22T07:38:31.029Z,94.9
2023-02-22T07:39:47.268Z,94.9
2023-02-22T07:41:03.512Z,94.7
2023-02-22T07:42:19.775Z,94.7
2023-02-22T07:43:35.989Z,94.5
2023-02-22T07:44:52.228Z,94.3
2023-02-22T07:46:08.494Z,94
2023-02-22T07:47:24.738Z,93.9
2023-02-22T07:48:40.969Z,93.7
2023-02-22T07:49:57.219Z,93.6
2023-02-22T07:51:13.456Z,93.4
2023-02-22T07:52:29.682Z,93.4
2023-02-22T07:53:46.055Z,93.3
2023-02-22T07:55:02.300Z,93.3
2023-02-22T07:56:18.536Z,93.1
2023-02-22T07:57:34.757Z,93.1
2023-02-22T07:58:50.987Z,92.9
2023-02-22T08:00:07.257Z,92.8
2023-02-22T08:01:23.506Z,92.6
2023-02-22T08:02:39.712Z,92.5
2023-02-22T08:03:55.952Z,92.4
2023-02-22T08:05:12.220Z,92.3
2023-02-22T08:06:28.428Z,92.3
2023-02-22T08:07:44.702Z,92.1
2023-02-22T08:09:00.911Z,92
2023-02-22T08:10:16.169Z,92.1
2023-02-22T08:11:32.410Z,92.1
2023-02-22T08:12:48.646Z,92
2023-02-22T08:14:04.918Z,92.2
2023-02-22T08:15:21.138Z,92.2
2023-02-22T08:16:37.399Z,92.4
2023-02-22T08:17:53.613Z,92.3
2023-02-22T08:19:09.864Z,92.2
2023-02-22T08:20:26.092Z,92.3
2023-02-22T08:21:42.335Z,92.3
2023-02-22T08:22:58.577Z,92.3
2023-02-22T08:24:14.833Z,92.2
2023-02-22T08:25:31.055Z,92
2023-02-22T08:26:46.344Z,92.1
2023-02-22T08:28:02.547Z,92.3
2023-02-22T08:29:18.784Z,92.2
2023-02-22T08:30:35.044Z,92.1
2023-02-22T08:31:51.264Z,91.8
2023-02-22T08:33:07.515Z,91.7
2023-02-22T08:34:23.783Z,91.7
2023-02-22T08:35:40.013Z,91.6
2023-02-22T08:36:56.254Z,91.5
2023-02-22T08:38:12.497Z,91.4
2023-02-22T08:39:28.710Z,91.3
2023-02-22T08:40:44.952Z,91.3
2023-02-22T08:42:01.213Z,91.3
2023-02-22T08:43:16.478Z,91.6
2023-02-22T08:44:32.719Z,91.5
2023-02-22T08:45:48.957Z,91.3
2023-02-22T08:47:05.172Z,91.4
2023-02-22T08:48:21.443Z,91.3
2023-02-22T08:49:37.679Z,91
2023-02-22T08:50:53.885Z,90.6
2023-02-22T08:52:10.163Z,89.8
2023-02-22T08:53:26.401Z,89.7
2023-02-22T08:54:42.606Z,89.4
2023-02-22T08:55:58.872Z,89.7
2023-02-22T08:57:15.110Z,89.7
2023-02-22T08:58:31.334Z,89.6
2023-02-22T08:59:46.599Z,89.4
2023-02-22T09:01:02.832Z,89.1
2023-02-22T09:02:19.062Z,89.1
2023-02-22T09:03:35.327Z,89.1
2023-02-22T09:04:51.567Z,89.1
2023-02-22T09:06:07.781Z,89.1
2023-02-22T09:07:24.029Z,88.9
2023-02-22T09:08:40.295Z,88.5
2023-02-22T09:09:56.503Z,88.3
2023-02-22T09:11:12.749Z,88.1
2023-02-22T09:12:29.007Z,87.8
2023-02-22T09:13:45.253Z,86.8
2023-02-22T09:15:01.487Z,86.5
2023-02-22T09:16:16.752Z,86.2
2023-02-22T09:17:32.958Z,86.3
2023-02-22T09:18:49.202Z,85.9
2023-02-22T09:20:05.473Z,86
2023-02-22T09:21:21.713Z,86.2
2023-02-22T09:22:37.935Z,86.6
2023-02-22T09:23:54.185Z,86.2
2023-02-22T09:25:10.403Z,86.3
2023-02-22T09:26:26.674Z,85.4
2023-02-22T09:27:42.909Z,85.4
2023-02-22T09:28:59.146Z,85.8
2023-02-22T09:30:15.391Z,85.5
2023-02-22T09:31:31.601Z,85.5
2023-02-22T09:32:46.862Z,85.4
2023-02-22T09:34:03.101Z,85.8
2023-02-22T09:35:19.365Z,85.4
2023-02-22T09:36:35.612Z,85.2
2023-02-22T09:37:51.818Z,85.3
2023-02-22T09:39:08.064Z,85.3
2023-02-22T09:40:24.297Z,85.4
2023-02-22T09:41:40.574Z,85.3
2023-02-22T09:42:56.792Z,85.5
2023-02-22T09:44:13.042Z,85.5
2023-02-22T09:45:29.268Z,85.5
2023-02-22T09:46:45.502Z,85.8
2023-02-22T09:48:01.768Z,85.5
2023-02-22T09:49:17.996Z,85.2
2023-02-22T09:50:33.263Z,85
2023-02-22T09:51:49.476Z,84.2
2023-02-22T09:53:05.725Z,83.8
2023-02-22T09:54:21.963Z,83.7
2023-02-22T09:55:38.201Z,84
2023-02-22T09:56:54.437Z,84.2
2023-02-22T09:58:10.685Z,83.8
2023-02-22T09:59:26.944Z,83.6
2023-02-22T10:00:43.184Z,83.6
2023-02-22T10:01:59.440Z,83.3
2023-02-22T10:03:15.634Z,83.5
2023-02-22T10:04:31.886Z,83.4
2023-02-22T10:05:48.115Z,83.6
2023-02-22T10:07:03.410Z,83.2
2023-02-22T10:08:19.638Z,83.4
2023-02-22T10:09:35.882Z,83.7
2023-02-22T10:10:52.139Z,83.7
2023-02-22T10:12:08.343Z,83.7
2023-02-22T10:13:24.572Z,83.7
2023-02-22T10:14:40.814Z,83.4
2023-02-22T10:15:57.058Z,83.4
2023-02-22T10:17:13.329Z,83.2
2023-02-22T10:18:29.566Z,83.3
2023-02-22T10:19:45.782Z,83.5
2023-02-22T10:21:02.017Z,83.1
2023-02-22T10:22:18.253Z,83.3
2023-02-22T10:23:33.516Z,83.4
2023-02-22T10:24:49.794Z,83.2
2023-02-22T10:26:05.990Z,83.4
2023-02-22T10:27:22.247Z,83.2
2023-02-22T10:28:38.512Z,83.1
2023-02-22T10:29:54.738Z,83.3
2023-02-22T10:31:10.987Z,84
2023-02-22T10:32:27.194Z,84.1
2023-02-22T10:33:43.437Z,84
2023-02-22T10:34:59.676Z,83.5
2023-02-22T10:36:15.909Z,83.6
2023-02-22T10:37:32.180Z,83.2
2023-02-22T10:38:48.418Z,83.2
2023-02-22T10:40:03.655Z,82.8
2023-02-22T10:41:19.891Z,82.4
2023-02-22T10:42:36.167Z,82.2
2023-02-22T10:43:52.369Z,82.4
2023-02-22T10:45:08.641Z,82.9
2023-02-22T10:46:24.858Z,82.8
2023-02-22T10:47:41.117Z,82.3
2023-02-22T10:48:57.359Z,82.6
2023-02-22T10:50:13.565Z,82.8
2023-02-22T10:51:29.833Z,82.4
2023-02-22T10:52:46.043Z,82.1
2023-02-22T10:54:02.325Z,81.8
2023-02-22T10:55:18.534Z,81.7
2023-02-22T10:56:33.785Z,81.3
2023-02-22T10:57:50.052Z,81.5
2023-02-22T10:59:06.288Z,81.9
2023-02-22T11:00:22.530Z,82
2023-02-22T11:01:38.772Z,82.1
2023-02-22T11:02:54.031Z,81.9
2023-02-22T11:04:10.256Z,82.2
2023-02-22T11:05:26.487Z,82.3
2023-02-22T11:06:42.760Z,82.4
2023-02-22T11:07:58.976Z,82.4
2023-02-22T11:09:15.205Z,81.8
2023-02-22T11:10:31.460Z,81.2
2023-02-22T11:11:47.687Z,80.9
2023-02-22T11:13:03.961Z,81.1
2023-02-22T11:14:20.194Z,81.2
2023-02-22T11:15:36.407Z,80.8
2023-02-22T11:16:52.661Z,80.9
2023-02-22T11:18:08.930Z,80.5
2023-02-22T11:19:24.157Z,80.5
2023-02-22T11:20:40.383Z,80.1
2023-02-22T11:21:56.626Z,79.3
2023-02-22T11:23:12.896Z,79.1
2023-02-22T11:24:29.144Z,78.9
2023-02-22T11:25:45.352Z,78
2023-02-22T11:27:01.586Z,78.8
2023-02-22T11:28:17.833Z,78.2
2023-02-22T11:29:34.108Z,77.8
2023-02-22T11:30:50.334Z,77.8
2023-02-22T11:32:06.567Z,78
2023-02-22T11:33:22.790Z,76.8
2023-02-22T11:34:39.067Z,74.7
2023-02-22T11:35:54.326Z,74.8
2023-02-22T11:37:10.563Z,75.8
2023-02-22T11:38:26.764Z,75.3
2023-02-22T11:39:43.048Z,75.5
2023-02-22T11:40:59.283Z,75.1
2023-02-22T11:42:15.526Z,75.2
2023-02-22T11:43:31.767Z,75.4
2023-02-22T11:44:47.970Z,75.1
2023-02-22T11:46:04.212Z,75.5
2023-02-22T11:47:20.453Z,75.3
2023-02-22T11:48:36.725Z,74.6
2023-02-22T11:49:52.959Z,74.9
2023-02-22T11:51:09.196Z,75.1
2023-02-22T11:52:24.461Z,74.1
2023-02-22T11:53:40.669Z,73.7
2023-02-22T11:54:56.909Z,74.2
2023-02-22T11:56:13.150Z,74.1
2023-02-22T11:57:29.388Z,72.6
2023-02-22T11:58:45.628Z,73
2023-02-22T12:00:01.879Z,73
2023-02-22T12:01:18.102Z,72.9
2023-02-22T12:02:34.351Z,70.9
2023-02-22T12:03:50.615Z,71.4
2023-02-22T12:05:06.851Z,70.8
2023-02-22T12:06:23.066Z,71
2023-02-22T12:07:39.340Z,71.6
2023-02-22T12:08:54.563Z,71.4
2023-02-22T12:10:10.802Z,71.8
2023-02-22T12:11:27.080Z,72.1
2023-02-22T12:12:43.274Z,72.3
2023-02-22T12:13:59.550Z,72.4
2023-02-22T12:15:15.787Z,71.8
2023-02-22T12:16:31.998Z,71.4
2023-02-22T12:17:48.245Z,72.1
2023-02-22T12:19:04.513Z,71.5
2023-02-22T12:20:20.717Z,72.1
2023-02-22T12:21:36.962Z,71.7
2023-02-22T12:22:53.203Z,71.5
2023-02-22T12:24:09.000Z,71.6
2023-02-22T12:25:24.693Z,71.9
2023-02-22T12:26:40.972Z,70.5
2023-02-22T12:27:57.169Z,71.8
2023-02-22T12:29:13.410Z,71.1
2023-02-22T12:30:29.658Z,71.3
2023-02-22T12:31:45.890Z,71
2023-02-22T12:33:02.139Z,71
2023-02-22T12:34:18.406Z,71.1
2023-02-22T12:35:34.643Z,71.6
2023-02-22T12:36:50.864Z,71
2023-02-22T12:38:07.097Z,70.7
2023-02-22T12:39:23.367Z,70.8
2023-02-22T12:40:39.580Z,71.6
2023-02-22T12:41:54.826Z,70.9
2023-02-22T12:43:11.101Z,71.2
2023-02-22T12:44:27.317Z,70.5
2023-02-22T12:45:43.573Z,70.4
2023-02-22T12:46:59.787Z,70.6
2023-02-22T12:48:16.054Z,71.2
2023-02-22T12:49:32.307Z,69.3
2023-02-22T12:50:48.507Z,70.5
2023-02-22T12:52:04.743Z,70.8
2023-02-22T12:53:21.015Z,69.9
2023-02-22T12:54:37.227Z,70.4
2023-02-22T12:55:53.468Z,70.5
2023-02-22T12:57:09.733Z,69.3
2023-02-22T12:58:24.997Z,69.6
2023-02-22T12:59:41.246Z,70.2
2023-02-22T13:00:57.473Z,70
2023-02-22T13:02:13.690Z,69.6
2023-02-22T13:03:29.933Z,69.4
2023-02-22T13:04:46.195Z,69.4
2023-02-22T13:06:02.427Z,69.8
2023-02-22T13:07:18.643Z,67.9
2023-02-22T13:08:34.913Z,67.8
2023-02-22T13:09:51.128Z,68.2
2023-02-22T13:11:07.393Z,67
2023-02-22T13:12:23.596Z,65.3
2023-02-22T13:13:39.839Z,64.7
2023-02-22T13:14:55.110Z,65.1
2023-02-22T13:16:11.368Z,64
2023-02-22T13:17:27.577Z,64
2023-02-22T13:18:43.845Z,63.2
2023-02-22T13:20:00.084Z,62.9
2023-02-22T13:21:16.322Z,63.2
2023-02-22T13:22:32.567Z,63.6
2023-02-22T13:23:48.800Z,63.6
2023-02-22T13:25:05.052Z,65.3
2023-02-22T13:26:21.252Z,64.5
2023-02-22T13:27:37.533Z,65.2
2023-02-22T13:28:53.767Z,65.5
2023-02-22T13:30:10.004Z,65.6
2023-02-22T13:31:25.236Z,66.7
2023-02-22T13:32:41.503Z,67.1
2023-02-22T13:33:57.705Z,67.8
2023-02-22T13:35:13.982Z,68.2
2023-02-22T13:36:30.187Z,67.6
2023-02-22T13:37:46.453Z,68
2023-02-22T13:39:02.664Z,68
2023-02-22T13:40:18.934Z,68.8
2023-02-22T13:41:35.154Z,68.1
2023-02-22T13:42:51.432Z,68.5
2023-02-22T13:44:07.667Z,67.9
2023-02-22T13:45:23.863Z,68.4
2023-02-22T13:46:40.133Z,69.5
2023-02-22T13:47:55.403Z,68.4
2023-02-22T13:49:11.630Z,67.6
2023-02-22T13:50:27.874Z,67.9
2023-02-22T13:51:44.076Z,68.1
2023-02-22T13:53:00.347Z,68.5
2023-02-22T13:54:16.590Z,67.8
2023-02-22T13:55:32.827Z,68.2
2023-02-22T13:56:49.071Z,68.6
2023-02-22T13:58:05.315Z,67.7
2023-02-22T13:59:21.521Z,67.9
2023-02-22T14:00:37.762Z,67.9
2023-02-22T14:01:54.043Z,68.3
2023-02-22T14:03:10.234Z,68.2
2023-02-22T14:04:25.501Z,68.1
2023-02-22T14:05:41.763Z,69
2023-02-22T14:06:57.981Z,68.5
2023-02-22T14:08:14.209Z,69
2023-02-22T14:09:30.451Z,69.4
2023-02-22T14:10:46.730Z,68.5
2023-02-22T14:12:02.968Z,69.4
2023-02-22T14:13:19.182Z,69.3
2023-02-22T14:14:35.443Z,69.2
2023-02-22T14:15:51.681Z,69.5
2023-02-22T14:17:07.922Z,69.4
2023-02-22T14:18:24.139Z,69.2
2023-02-22T14:19:40.410Z,69.7
2023-02-22T14:20:55.655Z,70.1
2023-02-22T14:22:11.867Z,70
2023-02-22T14:23:28.119Z,70.7
2023-02-22T14:24:44.354Z,70.2
2023-02-22T14:26:00.582Z,70.3
2023-02-22T14:27:16.825Z,70.6
2023-02-22T14:28:33.063Z,70.9
2023-02-22T14:29:49.341Z,71.5
2023-02-22T14:31:05.545Z,71.8
2023-02-22T14:32:21.823Z,71.9
2023-02-22T14:33:38.027Z,72.1
2023-02-22T14:34:54.296Z,71.7
2023-02-22T14:36:10.512Z,72
2023-02-22T14:37:25.759Z,72.5
2023-02-22T14:38:41.999Z,72.4
2023-02-22T14:39:58.276Z,72.7
2023-02-22T14:41:14.519Z,72.4
2023-02-22T14:42:30.761Z,72.3
2023-02-22T14:43:47.001Z,73
2023-02-22T14:45:03.236Z,73.5
2023-02-22T14:46:19.454Z,73.3
2023-02-22T14:47:35.724Z,73.9
2023-02-22T14:48:51.947Z,74
2023-02-22T14:50:08.194Z,74
2023-02-22T14:51:24.439Z,74.1
2023-02-22T14:52:40.642Z,74.5
2023-02-22T14:53:55.929Z,73.9
2023-02-22T14:55:12.135Z,73.8
2023-02-22T14:56:28.372Z,74.3
2023-02-22T14:57:44.651Z,74.3
2023-02-22T14:59:00.848Z,74.6
2023-02-22T15:00:17.126Z,74.5
2023-02-22T15:01:33.330Z,74.5
2023-02-22T15:02:49.615Z,74.6
2023-02-22T15:04:05.845Z,74.5
2023-02-22T15:05:22.080Z,74.5
2023-02-22T15:06:38.288Z,74.3
2023-02-22T15:07:54.529Z,74.5
2023-02-22T15:09:10.787Z,74.8
2023-02-22T15:10:26.065Z,74.5
2023-02-22T15:11:42.312Z,74.5
2023-02-22T15:12:58.512Z,74.7
2023-02-22T15:14:14.747Z,74.8
2023-02-22T15:15:31.019Z,75
2023-02-22T15:16:47.272Z,74.8
2023-02-22T15:18:03.472Z,74.8
2023-02-22T15:19:18.740Z,74.7
2023-02-22T15:20:34.967Z,74.8
2023-02-22T15:21:51.257Z,74.4
2023-02-22T15:23:07.454Z,74.6
2023-02-22T15:24:23.699Z,74.8
2023-02-22T15:25:39.969Z,74.8
2023-02-22T15:26:56.196Z,75.2
2023-02-22T15:28:12.447Z,75.1
2023-02-22T15:29:28.683Z,75.4
2023-02-22T15:30:44.903Z,75.5
2023-02-22T15:32:01.140Z,75.3
2023-02-22T15:33:17.398Z,75.1
2023-02-22T15:34:33.608Z,75.2
2023-02-22T15:35:48.863Z,75.6
2023-02-22T15:37:05.142Z,75.5
2023-02-22T15:38:21.377Z,75.8
2023-02-22T15:39:37.585Z,75.8
2023-02-22T15:40:53.822Z,75.8
2023-02-22T15:42:10.092Z,75.6
2023-02-22T15:43:26.299Z,75.8
2023-02-22T15:44:42.545Z,75.8
2023-02-22T15:45:58.819Z,76.3
2023-02-22T15:47:15.060Z,76.4
2023-02-22T15:48:31.257Z,76.7
2023-02-22T15:49:47.497Z,76.7
2023-02-22T15:51:03.782Z,76.6
2023-02-22T15:52:18.995Z,76.6
2023-02-22T15:53:35.234Z,76.4
2023-02-22T15:54:51.478Z,76.8
2023-02-22T15:56:07.717Z,76.8
2023-02-22T15:57:23.953Z,77.3
2023-02-22T15:58:40.199Z,77.3
2023-02-22T15:59:56.436Z,77
2023-02-22T16:01:12.675Z,77.5
2023-02-22T16:02:28.946Z,77.7
2023-02-22T16:03:45.193Z,77.5
2023-02-22T16:05:01.428Z,77.8
2023-02-22T16:06:17.674Z,78
2023-02-22T16:07:33.923Z,78.2
2023-02-22T16:08:49.134Z,78.1
2023-02-22T16:10:05.420Z,78.3
2023-02-22T16:11:21.615Z,78.9
2023-02-22T16:12:37.888Z,78.8
2023-02-22T16:13:54.133Z,78.9
2023-02-22T16:15:10.374Z,79.3
2023-02-22T16:16:26.621Z,79.2
2023-02-22T16:17:42.819Z,79.6
2023-02-22T16:18:59.050Z,79.6
2023-02-22T16:20:15.329Z,79.7
2023-02-22T16:21:31.537Z,80
2023-02-22T16:22:47.771Z,79.9
2023-02-22T16:24:04.042Z,80.1
2023-02-22T16:25:19.275Z,80.3
2023-02-22T16:26:35.503Z,80.4
2023-02-22T16:27:51.795Z,80.3
2023-02-22T16:29:07.987Z,80.3
2023-02-22T16:30:24.258Z,81
2023-02-22T16:31:40.465Z,80.8
2023-02-22T16:32:56.715Z,80.8
2023-02-22T16:34:12.986Z,80.9
2023-02-22T16:35:29.226Z,81.1
2023-02-22T16:36:45.462Z,81
2023-02-22T16:38:01.703Z,80.9
2023-02-22T16:39:17.951Z,81
2023-02-22T16:40:34.147Z,81.2
2023-02-22T16:41:49.400Z,81.2
2023-02-22T16:43:05.674Z,81.2
2023-02-22T16:44:21.914Z,81.2
2023-02-22T16:45:38.121Z,81.1
2023-02-22T16:46:54.394Z,81.4
2023-02-22T16:48:10.638Z,81.5
2023-02-22T16:49:26.840Z,81.4
2023-02-22T16:50:43.118Z,81.6
2023-02-22T16:51:59.329Z,81.7
2023-02-22T16:53:15.604Z,81.7
2023-02-22T16:54:31.799Z,81.6
2023-02-22T16:55:48.058Z,81.9
2023-02-22T16:57:04.280Z,82.1
2023-02-22T16:58:19.580Z,82.4
2023-02-22T16:59:35.829Z,82.4
2023-02-22T17:00:52.050Z,82.5
2023-02-22T17:02:08.255Z,82.5
2023-02-22T17:03:24.494Z,82.7